LFMN/NCE METAR and TAF weather

Enter ICAO airport designator
Station Type Date Time Source
LFMN METAR 2020/11/28 19:30 UTC NOAA

LFMN 281930Z 07014KT 9999 SCT100 SCT260 18/09 Q1010 NOSIG


Station Type Date Time Source
LFMN Decoded METAR 2020/11/28 19:30 UTC NOAA

Nice, France (LFMN) 43-39N 007-12E 10M
Nov 28, 2020 - 02:30 PM EST / 2020.11.28 1930 UTC
Wind: from the ENE (070 degrees) at 16 MPH (14 KT):0
Visibility: greater than 7 mile(s):0
Sky conditions: partly cloudy
Temperature: 64 F (18 C)
Dew Point: 48 F (9 C)
Relative Humidity: 55%
Pressure (altimeter): 29.83 in. Hg (1010 hPa)
ob: LFMN 281930Z 07014KT 9999 SCT100 SCT260 18/09 Q1010 NOSIG
cycle: 19

Station Type Date Time Source
LFMN TAF 2020/11/28 15:24 UTC NOAA

TAF TAF LFMN 281400Z 2815/2921 07015KT 9999 BKN070 PROB40
TEMPO 2815/2816 07025KT
BECMG 2821/2823 01010KT
BECMG 2909/2911 22010KT
BECMG 2916/2918 34010KT

Example: see airport list